Time;durP1;ratioP1;P1;durP2;ratioP2;P2;SDS_P1;SDS_P2;PMS_P1;PMS_P2;Temp;Humidity;BMP_temperature;BMP_pressure;BME280_temperature;BME280_humidity;BME280_pressure;Samples;Min_cycle;Max_cycle;Signal;HPM_P1;HPM_P2
2023/06/27 00:01:45;;;;;;;2.05;1.15;;;18.90;99.90;;;;;;4993928;28;20023;-58
2023/06/27 00:04:11;;;;;;;5.40;1.77;;;18.80;99.90;;;;;;4995799;28;20042;-58
2023/06/27 00:06:41;;;;;;;3.20;1.10;;;18.80;99.90;;;;;;4996373;28;20069;-59
2023/06/27 00:09:10;;;;;;;2.22;1.40;;;18.70;99.90;;;;;;4995697;28;20098;-59
2023/06/27 00:11:39;;;;;;;1.90;1.42;;;18.60;99.90;;;;;;4993664;28;20030;-57
2023/06/27 00:14:07;;;;;;;2.15;1.10;;;18.60;99.90;;;;;;4996594;28;20029;-58
2023/06/27 00:16:33;;;;;;;2.72;1.10;;;18.50;99.90;;;;;;4997934;28;20031;-57
2023/06/27 00:19:03;;;;;;;6.32;1.30;;;18.50;99.90;;;;;;4995158;28;20034;-57
2023/06/27 00:21:29;;;;;;;3.78;1.10;;;18.40;99.90;;;;;;4995756;28;20034;-57
2023/06/27 00:24:04;;;;;;;3.22;1.20;;;18.40;99.90;;;;;;5000110;28;20582;-58
2023/06/27 00:26:30;;;;;;;4.90;1.40;;;18.30;99.90;;;;;;4999718;28;20546;-57
2023/06/27 00:28:57;;;;;;;4.45;1.10;;;18.20;99.90;;;;;;4998342;28;20152;-58
2023/06/27 00:31:22;;;;;;;2.05;1.20;;;18.20;99.90;;;;;;5001802;28;20030;-57
2023/06/27 00:33:48;;;;;;;4.93;1.20;;;18.10;99.90;;;;;;4999619;28;20029;-58
2023/06/27 00:36:14;;;;;;;4.30;1.13;;;18.00;99.90;;;;;;5000913;28;20633;-58
2023/06/27 00:38:40;;;;;;;1.77;1.10;;;18.00;99.90;;;;;;4998843;28;20033;-58
2023/06/27 00:41:06;;;;;;;3.58;1.25;;;17.90;99.90;;;;;;4997053;28;20080;-58
2023/06/27 00:43:31;;;;;;;2.97;1.42;;;17.80;99.90;;;;;;4997960;28;20097;-59
2023/06/27 00:45:58;;;;;;;3.45;1.48;;;17.70;99.90;;;;;;4999066;28;20030;-58
2023/06/27 00:48:23;;;;;;;4.47;1.10;;;17.70;99.90;;;;;;4999896;28;20042;-59
2023/06/27 00:50:52;;;;;;;1.10;1.00;;;17.70;99.90;;;;;;4999713;28;20034;-57
2023/06/27 00:53:18;;;;;;;2.63;1.25;;;17.60;99.90;;;;;;5002452;28;20037;-56
2023/06/27 00:55:44;;;;;;;4.35;1.60;;;17.50;99.90;;;;;;4998465;28;20022;-58
2023/06/27 00:58:10;;;;;;;1.52;1.33;;;17.50;99.90;;;;;;5000753;28;20406;-57
2023/06/27 01:00:35;;;;;;;2.55;1.48;;;17.40;99.90;;;;;;5003128;28;20022;-58
2023/06/27 01:03:02;;;;;;;4.32;1.30;;;17.40;99.90;;;;;;4997678;28;20030;-59
2023/06/27 01:05:28;;;;;;;2.03;1.10;;;17.30;99.90;;;;;;5002288;28;20141;-58
2023/06/27 01:08:01;;;;;;;1.90;1.30;;;17.30;99.90;;;;;;4996984;28;20015;-58
2023/06/27 01:10:35;;;;;;;3.63;1.55;;;17.30;99.90;;;;;;4998878;28;20091;-58
2023/06/27 01:13:19;;;;;;;2.75;1.35;;;17.20;99.90;;;;;;5000377;28;20520;-58
2023/06/27 01:15:45;;;;;;;3.60;1.35;;;17.20;99.90;;;;;;4998470;28;20525;-56
2023/06/27 01:18:12;;;;;;;1.27;1.17;;;17.10;99.90;;;;;;4999956;28;20117;-57
2023/06/27 01:20:39;;;;;;;2.22;1.27;;;17.10;99.90;;;;;;5000437;28;20030;-57
2023/06/27 01:23:22;;;;;;;3.90;1.10;;;17.10;99.90;;;;;;4997786;28;20101;-57
2023/06/27 01:25:50;;;;;;;2.22;1.10;;;17.00;99.90;;;;;;5003462;28;20021;-57
2023/06/27 01:28:17;;;;;;;1.38;1.08;;;17.00;99.90;;;;;;4997039;28;20034;-57
2023/06/27 01:30:43;;;;;;;2.55;1.10;;;16.90;99.90;;;;;;4995380;28;20451;-58
2023/06/27 01:33:19;;;;;;;1.50;1.00;;;16.80;99.90;;;;;;4999172;28;20143;-58
2023/06/27 01:36:04;;;;;;;1.73;1.13;;;16.80;99.90;;;;;;4999116;28;20029;-58
2023/06/27 01:38:42;;;;;;;4.88;1.30;;;16.70;99.90;;;;;;4998401;28;20033;-58
2023/06/27 01:41:12;;;;;;;5.97;1.23;;;16.60;99.90;;;;;;4997013;28;20565;-58
2023/06/27 01:43:40;;;;;;;1.30;1.20;;;16.50;99.90;;;;;;5001979;28;20041;-58
2023/06/27 01:46:08;;;;;;;1.95;1.40;;;16.50;99.90;;;;;;4997078;28;20034;-58
2023/06/27 01:48:34;;;;;;;2.15;1.30;;;16.40;99.90;;;;;;4998630;28;20703;-59
2023/06/27 01:51:00;;;;;;;3.05;1.13;;;16.40;99.90;;;;;;4997943;28;20041;-57
2023/06/27 01:53:26;;;;;;;3.85;1.58;;;16.40;99.90;;;;;;4995751;28;20120;-57
2023/06/27 01:55:52;;;;;;;2.17;1.15;;;16.30;99.90;;;;;;4998884;28;20053;-58
2023/06/27 01:58:17;;;;;;;1.75;1.20;;;16.30;99.90;;;;;;4998776;28;20022;-56
2023/06/27 02:00:43;;;;;;;3.03;1.30;;;16.30;99.90;;;;;;4999790;28;20026;-58
2023/06/27 02:03:08;;;;;;;2.90;1.05;;;16.30;99.90;;;;;;4999183;28;20057;-57
2023/06/27 02:05:34;;;;;;;3.80;1.50;;;16.30;99.90;;;;;;4996066;28;20044;-57
2023/06/27 02:08:00;;;;;;;3.00;1.35;;;16.30;99.90;;;;;;4998269;28;20040;-58
2023/06/27 02:10:25;;;;;;;1.88;1.10;;;16.30;99.90;;;;;;4997441;28;20020;-57
2023/06/27 02:12:51;;;;;;;2.08;1.30;;;16.20;99.90;;;;;;4998699;28;20041;-58
2023/06/27 02:15:17;;;;;;;2.58;1.40;;;16.20;99.90;;;;;;4997589;28;20057;-58
2023/06/27 02:17:42;;;;;;;2.45;1.33;;;16.20;99.90;;;;;;4998266;28;20038;-58
2023/06/27 02:20:08;;;;;;;2.95;1.30;;;16.10;99.90;;;;;;4998383;28;20501;-58
2023/06/27 02:22:34;;;;;;;5.82;1.67;;;16.10;99.90;;;;;;4998724;28;20050;-58
2023/06/27 02:24:59;;;;;;;1.98;1.17;;;16.00;99.90;;;;;;4997288;28;20038;-57
2023/06/27 02:27:25;;;;;;;3.85;1.25;;;16.00;99.90;;;;;;4996830;28;20073;-58
2023/06/27 02:29:51;;;;;;;2.63;1.20;;;16.00;99.90;;;;;;4997793;28;20137;-58
2023/06/27 02:32:16;;;;;;;2.67;1.55;;;16.00;99.90;;;;;;4996684;28;20076;-58
2023/06/27 02:34:42;;;;;;;6.53;1.70;;;16.00;99.90;;;;;;4997726;28;20022;-57
2023/06/27 02:37:07;;;;;;;2.80;1.55;;;16.00;99.90;;;;;;4996232;28;20510;-58
2023/06/27 02:39:33;;;;;;;4.90;1.70;;;16.00;99.90;;;;;;4996622;28;20141;-58
2023/06/27 02:41:58;;;;;;;3.13;1.55;;;16.00;99.90;;;;;;4997847;28;20470;-56
2023/06/27 02:44:24;;;;;;;3.65;1.52;;;15.90;99.90;;;;;;4999093;28;20029;-57
2023/06/27 02:46:50;;;;;;;2.95;1.42;;;15.90;99.90;;;;;;4999155;28;20379;-57
2023/06/27 02:49:15;;;;;;;3.10;1.42;;;15.90;99.90;;;;;;4999010;28;20031;-59
2023/06/27 02:51:41;;;;;;;5.30;1.75;;;15.80;99.90;;;;;;4998119;28;20545;-59
2023/06/27 02:54:06;;;;;;;3.10;1.40;;;15.80;99.90;;;;;;4997564;28;20087;-58
2023/06/27 02:56:32;;;;;;;3.65;1.60;;;15.70;99.90;;;;;;4997447;28;20490;-58
2023/06/27 02:58:57;;;;;;;2.55;1.55;;;15.70;99.90;;;;;;4995818;28;20048;-58
2023/06/27 03:01:23;;;;;;;6.28;1.67;;;15.70;99.90;;;;;;4997424;28;20121;-57
2023/06/27 03:03:49;;;;;;;2.17;1.25;;;15.60;99.90;;;;;;4996618;28;20037;-58
2023/06/27 03:06:15;;;;;;;3.17;1.63;;;15.60;99.90;;;;;;4995842;28;20033;-58
2023/06/27 03:08:41;;;;;;;2.25;1.30;;;15.60;99.90;;;;;;5000613;28;20027;-57
2023/06/27 03:11:06;;;;;;;2.63;1.30;;;15.60;99.90;;;;;;4995846;28;20093;-59
2023/06/27 03:13:32;;;;;;;1.80;1.10;;;15.60;99.90;;;;;;4999790;28;20038;-58
2023/06/27 03:15:58;;;;;;;1.40;1.30;;;15.60;99.90;;;;;;4999082;28;20030;-58
2023/06/27 03:18:23;;;;;;;5.30;1.38;;;15.60;99.90;;;;;;4995891;28;20027;-57
2023/06/27 03:20:49;;;;;;;1.75;1.30;;;15.60;99.90;;;;;;4998915;28;20034;-57
2023/06/27 03:23:14;;;;;;;4.35;1.48;;;15.60;99.90;;;;;;4996980;28;20483;-58
2023/06/27 03:25:40;;;;;;;1.80;1.40;;;15.60;99.90;;;;;;4997287;28;20402;-55
2023/06/27 03:28:06;;;;;;;3.13;1.40;;;15.50;99.90;;;;;;4997564;28;20033;-58
2023/06/27 03:30:32;;;;;;;2.00;1.27;;;15.50;99.90;;;;;;5000218;28;20054;-58
2023/06/27 03:32:58;;;;;;;3.17;1.42;;;15.60;99.90;;;;;;4996484;28;20041;-58
2023/06/27 03:35:23;;;;;;;1.48;1.10;;;15.60;99.90;;;;;;4993550;28;20031;-57
2023/06/27 03:37:50;;;;;;;4.22;1.67;;;15.50;99.90;;;;;;4996359;28;20109;-57
2023/06/27 03:40:17;;;;;;;2.65;1.23;;;15.50;99.90;;;;;;4997828;28;20194;-57
2023/06/27 03:42:42;;;;;;;3.78;1.60;;;15.50;99.90;;;;;;4997368;28;20494;-58
2023/06/27 03:45:08;;;;;;;1.63;1.10;;;15.50;99.90;;;;;;4996266;28;20085;-58
2023/06/27 03:47:34;;;;;;;3.03;1.30;;;15.40;99.90;;;;;;4996066;28;20026;-58
2023/06/27 03:50:00;;;;;;;2.03;1.38;;;15.40;99.90;;;;;;4995626;28;20034;-58
2023/06/27 03:52:25;;;;;;;3.40;1.50;;;15.40;99.90;;;;;;4995075;28;20025;-58
2023/06/27 03:54:51;;;;;;;2.55;1.40;;;15.40;99.90;;;;;;4997867;28;20133;-58
2023/06/27 03:57:17;;;;;;;3.65;1.58;;;15.40;99.90;;;;;;4997110;28;20701;-57
2023/06/27 03:59:42;;;;;;;2.45;1.40;;;15.30;99.90;;;;;;5000394;28;20039;-57
2023/06/27 04:02:08;;;;;;;3.30;1.50;;;15.20;99.90;;;;;;5001158;28;20072;-56
2023/06/27 04:04:34;;;;;;;3.25;1.70;;;15.10;99.90;;;;;;5003048;28;20030;-56
2023/06/27 04:06:59;;;;;;;2.58;1.30;;;15.10;99.90;;;;;;5004587;28;20030;-58
2023/06/27 04:09:25;;;;;;;3.08;1.30;;;15.00;99.90;;;;;;5001567;28;20061;-57
2023/06/27 04:11:50;;;;;;;3.67;1.60;;;15.00;99.90;;;;;;4998015;28;20022;-57
2023/06/27 04:14:17;;;;;;;2.90;1.27;;;15.00;99.90;;;;;;5000112;28;20022;-57
2023/06/27 04:16:44;;;;;;;5.88;1.63;;;15.00;99.90;;;;;;5002221;28;20079;-58
2023/06/27 04:19:09;;;;;;;2.45;1.40;;;15.00;99.90;;;;;;5000045;28;20034;-58
2023/06/27 04:21:35;;;;;;;2.65;1.38;;;15.10;99.90;;;;;;5000544;28;20033;-57
2023/06/27 04:24:01;;;;;;;3.00;1.45;;;15.10;99.90;;;;;;5001593;28;20112;-58
2023/06/27 04:26:27;;;;;;;2.85;1.55;;;15.20;99.90;;;;;;4999089;28;20048;-58
2023/06/27 04:28:52;;;;;;;4.07;1.55;;;15.20;99.90;;;;;;5000757;28;20479;-57
2023/06/27 04:31:18;;;;;;;5.88;1.25;;;15.30;99.90;;;;;;4997684;28;20018;-58
2023/06/27 04:33:44;;;;;;;2.35;1.33;;;15.30;99.90;;;;;;5000037;28;20057;-57
2023/06/27 04:36:10;;;;;;;3.72;1.35;;;15.40;99.90;;;;;;5002356;28;20034;-56
2023/06/27 04:38:39;;;;;;;3.00;1.55;;;15.40;99.90;;;;;;5000435;28;20041;-57
2023/06/27 04:41:06;;;;;;;2.13;1.20;;;15.50;99.90;;;;;;5001281;28;20022;-57
2023/06/27 04:43:32;;;;;;;3.10;1.67;;;15.60;99.90;;;;;;5001691;28;20036;-58
2023/06/27 04:45:59;;;;;;;3.65;1.40;;;15.60;99.90;;;;;;4996676;28;20447;-57
2023/06/27 04:48:24;;;;;;;3.45;1.50;;;15.70;99.90;;;;;;4998737;28;20026;-57
2023/06/27 04:50:50;;;;;;;1.70;1.30;;;15.80;99.90;;;;;;5000162;28;20397;-57
2023/06/27 04:53:19;;;;;;;3.13;1.20;;;15.90;99.90;;;;;;5001417;28;20062;-58
2023/06/27 04:55:48;;;;;;;2.13;1.25;;;15.90;99.90;;;;;;5000007;28;20697;-58
2023/06/27 04:58:14;;;;;;;4.03;1.40;;;16.00;99.90;;;;;;4997531;28;20031;-57
2023/06/27 05:00:41;;;;;;;3.17;1.38;;;16.10;99.90;;;;;;4999574;28;20037;-57
2023/06/27 05:03:06;;;;;;;2.30;1.48;;;16.10;99.90;;;;;;5000407;28;20035;-59
2023/06/27 05:05:35;;;;;;;2.30;1.48;;;16.20;99.90;;;;;;5000184;28;20106;-57
2023/06/27 05:08:01;;;;;;;3.65;1.83;;;16.20;99.90;;;;;;4997991;28;20117;-58
2023/06/27 05:10:27;;;;;;;4.40;1.40;;;16.20;99.90;;;;;;5000023;28;20060;-57
2023/06/27 05:12:53;;;;;;;3.03;1.33;;;16.30;99.90;;;;;;4998202;28;20066;-58
2023/06/27 05:15:19;;;;;;;3.78;1.42;;;16.40;99.90;;;;;;5002236;28;20031;-58
2023/06/27 05:17:52;;;;;;;3.22;1.38;;;16.50;99.90;;;;;;5002672;28;20041;-58
2023/06/27 05:20:18;;;;;;;2.47;1.20;;;16.50;99.90;;;;;;5002085;28;20037;-58
2023/06/27 05:22:44;;;;;;;3.55;1.20;;;16.40;99.90;;;;;;5001341;28;20024;-57
2023/06/27 05:25:10;;;;;;;1.48;1.25;;;16.40;99.90;;;;;;5003580;28;20034;-58
2023/06/27 05:27:36;;;;;;;2.53;1.13;;;16.50;99.90;;;;;;5002748;28;20128;-58
2023/06/27 05:30:02;;;;;;;4.35;1.63;;;16.70;99.90;;;;;;4998734;28;20959;-58
2023/06/27 05:32:27;;;;;;;2.65;1.20;;;16.90;99.90;;;;;;5005848;28;20040;-58
2023/06/27 05:34:53;;;;;;;2.45;1.20;;;17.00;99.90;;;;;;5002374;28;20029;-59
2023/06/27 05:37:19;;;;;;;2.85;1.52;;;17.10;99.90;;;;;;5000625;28;20394;-58
2023/06/27 05:39:45;;;;;;;4.72;1.05;;;17.10;99.90;;;;;;5002027;28;20029;-58
2023/06/27 05:42:10;;;;;;;2.63;1.25;;;17.10;99.90;;;;;;5002548;28;20076;-58
2023/06/27 05:44:36;;;;;;;3.75;1.40;;;17.10;99.90;;;;;;5004256;28;20030;-58
2023/06/27 05:47:02;;;;;;;4.20;1.00;;;17.20;99.90;;;;;;4997823;28;20042;-58
2023/06/27 05:49:28;;;;;;;1.90;1.13;;;17.20;99.90;;;;;;4993049;28;20033;-59
2023/06/27 05:51:53;;;;;;;2.95;1.48;;;17.20;99.90;;;;;;5002530;28;20510;-60
2023/06/27 05:54:19;;;;;;;3.47;1.20;;;17.30;99.90;;;;;;4998995;28;20061;-58
2023/06/27 05:56:44;;;;;;;2.95;1.13;;;17.30;99.90;;;;;;5001802;28;20518;-59
2023/06/27 05:59:10;;;;;;;2.28;1.20;;;17.30;99.90;;;;;;4998463;28;20034;-58
2023/06/27 06:01:37;;;;;;;4.25;1.42;;;17.20;99.90;;;;;;5000024;28;20138;-57
2023/06/27 06:04:03;;;;;;;2.88;1.10;;;17.20;99.90;;;;;;4997992;28;20038;-58
2023/06/27 06:06:29;;;;;;;3.67;1.40;;;17.20;99.90;;;;;;4994296;28;20782;-57
2023/06/27 06:08:55;;;;;;;4.75;1.27;;;17.30;99.90;;;;;;4997416;28;20033;-58
2023/06/27 06:11:21;;;;;;;5.55;1.15;;;17.40;99.90;;;;;;5001205;28;20042;-59
2023/06/27 06:13:46;;;;;;;3.08;1.40;;;17.50;99.90;;;;;;4998236;28;20482;-59
2023/06/27 06:16:12;;;;;;;2.30;1.30;;;17.50;99.90;;;;;;4995886;28;20030;-58
2023/06/27 06:18:37;;;;;;;1.63;1.02;;;17.40;99.90;;;;;;5000602;28;20518;-58
2023/06/27 06:21:03;;;;;;;2.13;1.20;;;17.40;99.90;;;;;;4997499;28;20065;-58
2023/06/27 06:23:29;;;;;;;3.28;1.38;;;17.40;99.90;;;;;;4998105;28;20029;-58
2023/06/27 06:25:54;;;;;;;2.67;1.40;;;17.50;99.90;;;;;;4999737;28;20017;-59
2023/06/27 06:28:20;;;;;;;5.10;1.42;;;17.70;99.90;;;;;;4999588;28;20041;-57
2023/06/27 06:30:45;;;;;;;2.63;1.35;;;17.70;99.90;;;;;;4995797;28;20441;-57
2023/06/27 06:33:11;;;;;;;4.00;1.20;;;17.80;99.90;;;;;;4999788;28;20336;-57
2023/06/27 06:35:37;;;;;;;5.80;1.65;;;17.80;99.90;;;;;;4996803;28;20026;-57
2023/06/27 06:38:02;;;;;;;4.03;1.00;;;17.90;99.90;;;;;;4999150;28;20659;-57
2023/06/27 06:40:30;;;;;;;3.70;1.20;;;18.00;99.90;;;;;;4998416;28;20030;-57
2023/06/27 06:42:55;;;;;;;2.45;1.00;;;18.20;99.90;;;;;;4999518;28;20058;-61
2023/06/27 06:45:21;;;;;;;2.50;1.20;;;18.20;99.90;;;;;;4995919;28;20064;-60
2023/06/27 06:47:47;;;;;;;3.13;1.10;;;18.20;99.90;;;;;;4997086;28;20080;-58
2023/06/27 06:50:14;;;;;;;2.53;1.20;;;18.20;99.90;;;;;;4998394;28;20069;-58
2023/06/27 06:52:40;;;;;;;1.70;1.00;;;18.30;99.90;;;;;;4998664;28;20033;-59
2023/06/27 06:55:06;;;;;;;2.15;1.10;;;18.30;99.90;;;;;;4999632;28;20390;-58
2023/06/27 06:57:32;;;;;;;2.95;1.02;;;18.40;99.90;;;;;;4997150;28;20101;-57
2023/06/27 06:59:57;;;;;;;2.38;0.90;;;18.50;99.90;;;;;;4999374;28;20045;-59
2023/06/27 07:02:23;;;;;;;3.67;1.25;;;18.50;99.90;;;;;;5000507;28;20109;-57
2023/06/27 07:04:48;;;;;;;3.95;1.10;;;18.60;99.90;;;;;;4995999;28;20031;-58
2023/06/27 07:07:14;;;;;;;2.47;1.00;;;18.60;99.90;;;;;;4996292;28;20560;-56
2023/06/27 07:09:40;;;;;;;6.63;1.00;;;18.70;99.90;;;;;;4997623;28;20058;-59
2023/06/27 07:12:06;;;;;;;3.08;0.90;;;18.70;99.90;;;;;;4998008;28;20117;-59
2023/06/27 07:14:31;;;;;;;3.42;0.93;;;18.90;99.90;;;;;;4996716;28;20091;-58
2023/06/27 07:16:57;;;;;;;4.28;0.98;;;19.00;96.30;;;;;;4997682;28;20034;-57
2023/06/27 07:19:22;;;;;;;1.38;0.90;;;18.90;94.60;;;;;;4997060;28;20103;-58
2023/06/27 07:21:48;;;;;;;3.25;0.90;;;18.90;93.60;;;;;;5001562;28;20102;-56
2023/06/27 07:24:14;;;;;;;1.80;0.90;;;18.90;88.50;;;;;;4996372;28;20054;-57
2023/06/27 07:26:39;;;;;;;2.08;0.70;;;18.90;86.60;;;;;;4994446;28;20398;-58
2023/06/27 07:29:05;;;;;;;2.45;0.80;;;18.90;87.70;;;;;;4999529;28;20022;-59
2023/06/27 07:31:30;;;;;;;1.60;1.00;;;18.80;89.50;;;;;;4999224;28;20080;-57
2023/06/27 07:33:56;;;;;;;1.48;0.85;;;18.90;89.10;;;;;;5001275;28;20380;-59
2023/06/27 07:36:22;;;;;;;2.92;1.40;;;18.90;90.80;;;;;;5000287;28;20125;-56
2023/06/27 07:38:47;;;;;;;1.30;0.85;;;19.00;91.00;;;;;;5007119;28;20022;-58
2023/06/27 07:41:13;;;;;;;2.72;0.90;;;19.10;89.50;;;;;;5000058;28;20033;-59
2023/06/27 07:43:38;;;;;;;2.00;0.88;;;19.10;86.90;;;;;;5000931;28;20023;-58
2023/06/27 07:46:04;;;;;;;5.80;1.10;;;19.20;85.10;;;;;;5000633;28;20038;-56
2023/06/27 07:48:30;;;;;;;1.00;0.70;;;19.20;85.30;;;;;;5003970;28;20037;-59
2023/06/27 07:50:55;;;;;;;1.02;0.80;;;19.30;87.30;;;;;;4998631;28;20034;-57
2023/06/27 07:53:21;;;;;;;3.08;0.60;;;19.40;82.50;;;;;;4999642;28;20478;-58
2023/06/27 07:55:46;;;;;;;2.97;0.90;;;19.40;82.80;;;;;;5001594;28;20022;-58
2023/06/27 07:58:12;;;;;;;3.70;1.10;;;19.50;83.50;;;;;;4997620;28;20442;-57
2023/06/27 08:00:38;;;;;;;3.15;1.00;;;19.50;85.20;;;;;;5000062;28;20026;-58
2023/06/27 08:03:04;;;;;;;3.13;0.80;;;19.50;84.80;;;;;;5000222;28;20034;-57
2023/06/27 08:05:34;;;;;;;2.53;0.90;;;19.40;82.90;;;;;;4998196;28;20040;-58
2023/06/27 08:08:01;;;;;;;3.25;0.70;;;19.40;84.40;;;;;;4998113;28;20037;-59
2023/06/27 08:10:27;;;;;;;2.45;0.80;;;19.40;85.30;;;;;;5001496;28;20068;-59
2023/06/27 08:12:53;;;;;;;2.33;1.08;;;19.40;82.80;;;;;;5001595;28;20036;-59
2023/06/27 08:15:19;;;;;;;2.08;0.90;;;19.30;83.70;;;;;;5000124;28;20030;-58
2023/06/27 08:17:45;;;;;;;2.13;0.90;;;19.40;85.90;;;;;;5002285;28;20054;-59
2023/06/27 08:20:11;;;;;;;3.10;1.00;;;19.40;84.90;;;;;;5000748;28;20033;-59
2023/06/27 08:22:36;;;;;;;1.77;0.80;;;19.50;83.90;;;;;;4996933;28;20074;-58
2023/06/27 08:25:02;;;;;;;1.40;0.65;;;19.50;83.70;;;;;;5000479;28;20407;-58
2023/06/27 08:27:28;;;;;;;2.65;1.05;;;19.50;81.90;;;;;;5001135;28;20073;-58
2023/06/27 08:29:54;;;;;;;2.72;1.13;;;19.60;83.00;;;;;;5002510;28;20026;-58
2023/06/27 08:32:19;;;;;;;2.28;0.90;;;19.50;81.40;;;;;;5002039;28;20030;-60
2023/06/27 08:34:45;;;;;;;2.03;0.98;;;19.60;82.90;;;;;;5002491;28;20021;-59
2023/06/27 08:37:11;;;;;;;3.60;1.17;;;19.80;82.20;;;;;;4996180;28;20054;-58
2023/06/27 08:39:37;;;;;;;3.47;0.93;;;19.80;77.90;;;;;;4998184;28;20107;-59
2023/06/27 08:42:03;;;;;;;3.35;1.08;;;19.80;79.40;;;;;;5000169;28;20394;-59
2023/06/27 08:44:28;;;;;;;2.78;1.00;;;19.80;79.90;;;;;;4999581;28;20034;-57
2023/06/27 08:46:58;;;;;;;2.33;0.70;;;19.90;77.10;;;;;;5001783;28;20035;-59
2023/06/27 08:49:27;;;;;;;1.58;0.80;;;19.90;77.20;;;;;;4997093;28;20093;-57
2023/06/27 08:51:56;;;;;;;1.23;0.82;;;20.00;77.00;;;;;;5000394;28;20396;-58
2023/06/27 08:54:37;;;;;;;3.30;0.90;;;20.10;75.40;;;;;;4999984;28;20030;-59
2023/06/27 08:57:04;;;;;;;2.92;0.80;;;20.20;75.60;;;;;;5003597;28;20046;-60
2023/06/27 08:59:36;;;;;;;1.92;1.02;;;20.20;75.10;;;;;;4999477;28;20600;-59
2023/06/27 09:02:03;;;;;;;1.27;0.90;;;20.20;73.60;;;;;;5000473;28;20490;-59
2023/06/27 09:04:33;;;;;;;2.75;0.80;;;20.10;73.30;;;;;;5001241;28;20029;-57
2023/06/27 09:07:00;;;;;;;3.85;1.00;;;20.10;76.00;;;;;;4999706;28;20121;-58
2023/06/27 09:09:27;;;;;;;3.17;0.85;;;20.10;75.20;;;;;;4996903;28;20026;-58
2023/06/27 09:11:53;;;;;;;2.45;0.75;;;20.10;75.90;;;;;;4999581;28;20022;-59
2023/06/27 09:14:19;;;;;;;4.78;1.10;;;20.20;73.30;;;;;;4997733;28;20079;-58
2023/06/27 09:16:45;;;;;;;1.55;0.75;;;20.20;74.30;;;;;;5002570;28;20479;-57
2023/06/27 09:19:11;;;;;;;2.92;1.15;;;20.30;73.30;;;;;;4999880;28;20027;-58
2023/06/27 09:21:38;;;;;;;3.58;1.02;;;20.40;74.60;;;;;;4998636;28;20026;-58
2023/06/27 09:24:11;;;;;;;1.40;0.90;;;20.60;73.90;;;;;;5001909;28;20049;-58
2023/06/27 09:26:37;;;;;;;7.65;0.95;;;20.70;73.30;;;;;;5000645;28;20100;-57
2023/06/27 09:29:03;;;;;;;3.33;1.00;;;20.90;71.50;;;;;;4998916;28;20022;-58
2023/06/27 09:31:30;;;;;;;1.88;0.70;;;20.90;70.50;;;;;;4999854;28;20021;-59
2023/06/27 09:34:09;;;;;;;1.23;0.82;;;21.00;71.20;;;;;;4997319;28;20065;-58
2023/06/27 09:36:39;;;;;;;1.58;0.85;;;21.10;70.00;;;;;;4999986;28;20034;-58
2023/06/27 09:39:06;;;;;;;2.22;0.80;;;21.00;69.70;;;;;;4997456;28;20034;-59
2023/06/27 09:41:49;;;;;;;3.13;1.05;;;21.10;69.80;;;;;;4997924;28;20026;-58
2023/06/27 09:44:19;;;;;;;1.92;0.68;;;21.30;70.80;;;;;;4999385;28;20598;-58
2023/06/27 09:46:47;;;;;;;3.03;1.00;;;21.40;71.40;;;;;;4999865;28;20122;-59
2023/06/27 09:49:14;;;;;;;2.17;0.80;;;21.60;70.70;;;;;;4999393;28;20076;-59
2023/06/27 09:51:40;;;;;;;3.10;1.05;;;21.90;68.60;;;;;;4999864;28;20049;-59
2023/06/27 09:54:06;;;;;;;2.58;0.85;;;22.00;68.10;;;;;;5000114;28;20031;-58
2023/06/27 09:56:33;;;;;;;4.68;0.95;;;22.20;69.40;;;;;;4999099;28;20528;-58
2023/06/27 09:59:12;;;;;;;2.50;1.15;;;22.30;67.70;;;;;;5000552;28;20026;-59
2023/06/27 10:01:39;;;;;;;5.53;1.10;;;22.40;65.70;;;;;;4998981;28;20116;-59
2023/06/27 10:04:05;;;;;;;4.22;0.90;;;22.20;66.50;;;;;;4996573;28;20442;-60
2023/06/27 10:06:31;;;;;;;4.65;1.10;;;22.20;67.50;;;;;;4999165;28;20053;-57
2023/06/27 10:08:57;;;;;;;1.83;0.98;;;22.20;65.70;;;;;;4997844;28;20054;-59
2023/06/27 10:11:24;;;;;;;1.75;0.70;;;22.10;64.40;;;;;;4997687;28;20034;-59
2023/06/27 10:13:51;;;;;;;1.35;0.73;;;22.10;66.50;;;;;;4997627;28;20022;-59
2023/06/27 10:16:17;;;;;;;3.25;0.90;;;22.10;66.50;;;;;;4998170;28;20061;-59
2023/06/27 10:18:43;;;;;;;2.25;1.05;;;22.10;66.30;;;;;;4999548;28;20077;-60
2023/06/27 10:21:10;;;;;;;3.33;0.90;;;22.20;64.50;;;;;;4999849;28;20537;-58
2023/06/27 10:23:41;;;;;;;2.80;0.85;;;22.10;63.70;;;;;;4993153;28;20064;-59
2023/06/27 10:26:09;;;;;;;7.75;0.98;;;22.20;66.30;;;;;;4996968;28;20030;-58
2023/06/27 10:28:35;;;;;;;2.53;0.82;;;22.20;65.70;;;;;;4999202;28;20018;-58
2023/06/27 10:31:04;;;;;;;3.83;0.90;;;22.20;64.60;;;;;;4999736;28;20540;-58
2023/06/27 10:33:32;;;;;;;16.52;1.35;;;22.30;64.90;;;;;;4998384;28;20509;-58
2023/06/27 10:35:57;;;;;;;1.55;0.70;;;22.40;67.20;;;;;;4996057;28;20038;-59
2023/06/27 10:38:32;;;;;;;3.53;1.13;;;22.50;65.80;;;;;;4996854;28;20036;-59
2023/06/27 10:41:09;;;;;;;1.95;1.00;;;22.50;62.40;;;;;;4996626;28;20026;-58
2023/06/27 10:43:47;;;;;;;5.82;0.98;;;22.40;61.60;;;;;;4997981;28;20034;-58
2023/06/27 10:46:26;;;;;;;3.70;1.45;;;22.40;64.40;;;;;;4998056;28;20153;-60
2023/06/27 10:49:00;;;;;;;3.35;0.90;;;22.40;63.40;;;;;;4998268;28;20058;-58
2023/06/27 10:51:44;;;;;;;2.10;0.77;;;22.40;65.70;;;;;;4997696;28;20066;-59
2023/06/27 10:54:11;;;;;;;1.85;0.90;;;22.50;62.20;;;;;;4998273;28;20027;-60
2023/06/27 10:56:41;;;;;;;2.95;0.93;;;22.30;62.30;;;;;;5001204;28;20069;-60
2023/06/27 10:59:19;;;;;;;2.70;1.10;;;22.30;63.10;;;;;;4999926;28;20084;-57
2023/06/27 11:01:50;;;;;;;2.78;0.80;;;22.20;63.10;;;;;;4998364;28;20072;-59
2023/06/27 11:04:16;;;;;;;;;;;22.10;62.80;;;;;;4996885;28;20561;-57
2023/06/27 11:06:45;;;;;;;2.55;0.88;;;22.10;64.10;;;;;;4998914;28;20770;-59
2023/06/27 11:09:14;;;;;;;1.90;1.00;;;22.20;62.50;;;;;;5000492;28;20033;-59
2023/06/27 11:11:40;;;;;;;2.25;0.93;;;22.40;63.10;;;;;;4999148;28;20598;-59
2023/06/27 11:14:08;;;;;;;2.25;1.00;;;22.60;62.80;;;;;;4998868;28;20128;-59
2023/06/27 11:16:35;;;;;;;2.45;1.10;;;22.60;62.40;;;;;;4997524;28;20026;-59
2023/06/27 11:19:04;;;;;;;1.85;0.82;;;22.70;62.70;;;;;;4998516;28;20066;-59
2023/06/27 11:21:31;;;;;;;1.73;0.80;;;22.80;61.30;;;;;;4995230;28;20084;-59
2023/06/27 11:23:59;;;;;;;2.85;1.00;;;23.00;60.20;;;;;;4997836;28;20050;-59
2023/06/27 11:26:26;;;;;;;1.65;0.95;;;23.10;59.40;;;;;;4998830;28;20379;-59
2023/06/27 11:28:52;;;;;;;1.65;0.90;;;23.30;61.10;;;;;;4997721;28;20049;-58
2023/06/27 11:31:19;;;;;;;3.22;0.77;;;23.50;61.90;;;;;;4997410;28;20612;-58
2023/06/27 11:33:45;;;;;;;1.33;0.80;;;23.60;58.60;;;;;;4996698;28;20078;-59
2023/06/27 11:36:11;;;;;;;3.15;1.17;;;23.80;58.10;;;;;;5001083;28;20044;-59
2023/06/27 11:38:37;;;;;;;3.83;1.23;;;23.90;57.90;;;;;;4996914;28;20395;-60
2023/06/27 11:41:04;;;;;;;2.67;0.70;;;23.90;56.80;;;;;;4994753;28;20045;-60
2023/06/27 11:43:30;;;;;;;2.38;1.00;;;23.80;57.10;;;;;;5000654;28;20483;-58
2023/06/27 11:46:00;;;;;;;2.78;0.70;;;23.50;56.60;;;;;;4994755;28;20053;-58
2023/06/27 11:48:27;;;;;;;1.52;0.80;;;23.20;57.70;;;;;;4996217;28;20030;-58
2023/06/27 11:51:06;;;;;;;2.50;1.00;;;23.10;59.20;;;;;;4995758;28;20099;-59
2023/06/27 11:53:33;;;;;;;4.32;0.85;;;23.30;61.20;;;;;;4995450;28;20473;-58
2023/06/27 11:55:59;;;;;;;2.90;0.90;;;23.40;58.10;;;;;;4996457;28;20030;-59
2023/06/27 11:58:29;;;;;;;2.40;0.85;;;23.60;59.80;;;;;;4995973;28;20107;-58
2023/06/27 12:00:56;;;;;;;1.23;0.82;;;23.80;58.80;;;;;;4996610;28;20022;-58
2023/06/27 12:03:29;;;;;;;2.15;1.00;;;23.80;59.40;;;;;;4996811;28;20152;-59
2023/06/27 12:05:58;;;;;;;1.75;0.82;;;23.90;57.40;;;;;;4997386;28;20033;-59
2023/06/27 12:08:34;;;;;;;2.58;1.02;;;23.90;56.90;;;;;;4996873;28;20045;-60
2023/06/27 12:11:02;;;;;;;1.77;0.93;;;23.70;57.20;;;;;;4997201;28;20902;-60
2023/06/27 12:13:39;;;;;;;2.65;0.90;;;23.60;58.20;;;;;;4991916;28;20026;-59
2023/06/27 12:16:05;;;;;;;2.03;0.68;;;23.50;57.50;;;;;;4996899;28;20069;-57
2023/06/27 12:18:31;;;;;;;0.98;0.73;;;23.50;57.50;;;;;;4995607;28;20037;-59
2023/06/27 12:20:59;;;;;;;1.63;0.85;;;23.40;57.20;;;;;;4999832;28;20042;-59
2023/06/27 12:23:28;;;;;;;2.55;0.88;;;23.40;57.00;;;;;;5001077;28;20083;-58
2023/06/27 12:25:53;;;;;;;2.78;1.00;;;23.30;58.90;;;;;;4999433;28;20054;-59
2023/06/27 12:28:21;;;;;;;1.60;0.77;;;23.30;58.20;;;;;;5003449;28;20022;-57
2023/06/27 12:30:46;;;;;;;1.77;0.90;;;23.20;58.30;;;;;;5001427;28;20022;-59
2023/06/27 12:33:12;;;;;;;3.28;1.05;;;23.10;58.20;;;;;;4994735;28;20048;-57
2023/06/27 12:35:39;;;;;;;1.88;1.00;;;22.90;58.30;;;;;;5001997;28;20023;-58
2023/06/27 12:38:05;;;;;;;1.40;0.80;;;22.60;60.00;;;;;;4996251;28;20084;-59
2023/06/27 12:40:31;;;;;;;4.43;1.00;;;22.40;58.80;;;;;;5001494;28;20022;-59
2023/06/27 12:42:57;;;;;;;1.48;0.93;;;22.40;60.10;;;;;;5004016;28;20099;-59
2023/06/27 12:45:23;;;;;;;1.77;1.00;;;22.40;62.40;;;;;;5002916;28;20088;-59
2023/06/27 12:47:49;;;;;;;0.80;0.73;;;22.40;60.70;;;;;;5002119;28;20029;-59